High Forest, Minnesota
Current Conditions -  °F | °C
As of 7:54 AM on Friday 19 Dec 2014 (Local Time) from KRST Reporting Station
Overcast Overcast  
Wind Chill: 15°   Ceiling: 2100
Heat Index: 23°   Visibility: 8mi
Dew Point: 18°   Wind: 7mph
Humidity: 81%   Direction: 160°SSE
Pressure: 30.24"   Gusts: NA
Location:  43.8884°N, 92.383°W
Report Text: KRST 191354Z 16006KT 8SM OVC021 M05/M08 A3024 RMK AO2 SLP262 T10501078
Loading
Personal Weather Stations






























Interactive Weather Map New forecast layout! Learn more

10-Day Weather Forecast

Advertisements
Track Severe Weather on mobile